Silver Shark — T8A2060 — position and weather

sailwx.info

Track history (hours):
 
Tides and Currents Weather Stations Pressure Air Temp Water Temp Dewpoint Dewpoint Depression Visibility Wind Speed Wind Dir Waves Ship Positions

Silver Shark

Last reported at 2018-Jun-10 16:44 UTC. Time now 2018-Jun-25 00:43 UTC.
Position N 31°14' E 029°46'.
Warning: this ship's position is 14 days out of date.

Length 167 m; draft 9.1 m.

Type: Cargo ship. MMSI: 511103000.

Date/timePositionNaut miles runAvg speedWind from/ knotsBaromVisibWave heightAir tempDewpointWater temp
2018-Jun-10 16:44N 31°14' E 029°46'0 0.0
2018-Jun-10 16:30N 31°14' E 029°46'0 0.0
2018-Jun-10 16:01N 31°14' E 029°46'0 0.0
2018-Jun-10 15:01N 31°14' E 029°46'0 0.0
2018-Jun-10 15:01N 31°14' E 029°46'0 0.0
2018-Jun-10 12:53N 31°14' E 029°46'0 0.0
2018-Jun-10 12:20N 31°14' E 029°46'164 6.8
2018-Jun-09 12:25N 33°45' E 028°32'25810.3
2018-Jun-08 11:14N 37°29' E 025°56'210.1
2018-Jun-08 11:01N 37°32' E 025°55'510.1
2018-Jun-08 10:30N 37°37' E 025°54'11810.1
2018-Jun-07 22:52N 39°34' E 025°47'1510.4
2018-Jun-07 21:26N 39°49' E 025°50'222 5.1
2018-Jun-06 01:59N 41°45' E 029°60'32310.6
2018-Jun-04 19:36N 44°39' E 036°14'111.2
2018-Jun-04 19:30N 44°39' E 036°15'611.1
2018-Jun-04 19:01N 44°42' E 036°22'810.4
2018-Jun-04 18:17N 44°47' E 036°31'310.0
2018-Jun-04 18:01N 44°48' E 036°34'5 9.6
2018-Jun-04 17:30N 44°51' E 036°40'4 8.9
2018-Jun-04 17:00N 44°53' E 036°45'1 1.4
2018-Jun-04 16:30N 44°54' E 036°46'0 0.0
2018-Jun-04 16:01N 44°54' E 036°46'0 0.0
2018-Jun-04 13:59N 44°54' E 036°46'0 0.0
2018-Jun-04 13:26N 44°54' E 036°46'  
Track history (hours):
 
Tides and Currents Weather Stations Pressure Air Temp Water Temp Dewpoint Dewpoint Depression Visibility Wind Speed Wind Dir Waves Ship Positions

Silver Shark

Last reported at 2018-Jun-10 16:44 UTC. Time now 2018-Jun-25 00:43 UTC.
Position N 31°14' E 029°46'.
Warning: this ship's position is 14 days out of date.

Length 167 m; draft 9.1 m.

Type: Cargo ship. MMSI: 511103000.

Date/timePositionNaut miles runAvg speedWind from/ knotsBaromVisibWave heightAir tempDewpointWater temp
2018-Jun-10 16:44N 31°14' E 029°46'0 0.0
2018-Jun-10 16:30N 31°14' E 029°46'0 0.0
2018-Jun-10 16:01N 31°14' E 029°46'0 0.0
2018-Jun-10 15:01N 31°14' E 029°46'0 0.0
2018-Jun-10 15:01N 31°14' E 029°46'0 0.0
2018-Jun-10 12:53N 31°14' E 029°46'0 0.0
2018-Jun-10 12:20N 31°14' E 029°46'164 6.8
2018-Jun-09 12:25N 33°45' E 028°32'25810.3
2018-Jun-08 11:14N 37°29' E 025°56'210.1
2018-Jun-08 11:01N 37°32' E 025°55'510.1
2018-Jun-08 10:30N 37°37' E 025°54'11810.1
2018-Jun-07 22:52N 39°34' E 025°47'1510.4
2018-Jun-07 21:26N 39°49' E 025°50'222 5.1
2018-Jun-06 01:59N 41°45' E 029°60'32310.6
2018-Jun-04 19:36N 44°39' E 036°14'111.2
2018-Jun-04 19:30N 44°39' E 036°15'611.1
2018-Jun-04 19:01N 44°42' E 036°22'810.4
2018-Jun-04 18:17N 44°47' E 036°31'310.0
2018-Jun-04 18:01N 44°48' E 036°34'5 9.6
2018-Jun-04 17:30N 44°51' E 036°40'4 8.9
2018-Jun-04 17:00N 44°53' E 036°45'1 1.4
2018-Jun-04 16:30N 44°54' E 036°46'0 0.0
2018-Jun-04 16:01N 44°54' E 036°46'0 0.0
2018-Jun-04 13:59N 44°54' E 036°46'0 0.0
2018-Jun-04 13:26N 44°54' E 036°46'  

Dump ship's entire track history